sensor_id;sensor_type;location;lat;lon;timestamp;P1;durP1;ratioP1;P2;durP2;ratioP2
7971;SDS011;4031;49.758;6.120;2022-07-06T00:01:44;2.00;;;1.70;;
7971;SDS011;4031;49.758;6.120;2022-07-06T00:04:10;2.33;;;2.10;;
7971;SDS011;4031;49.758;6.120;2022-07-06T00:06:36;1.53;;;1.43;;
7971;SDS011;4031;49.758;6.120;2022-07-06T00:09:02;2.30;;;1.90;;
7971;SDS011;4031;49.758;6.120;2022-07-06T00:11:28;2.97;;;1.90;;
7971;SDS011;4031;49.758;6.120;2022-07-06T00:13:54;5.20;;;2.10;;
7971;SDS011;4031;49.758;6.120;2022-07-06T00:16:21;2.13;;;1.93;;
7971;SDS011;4031;49.758;6.120;2022-07-06T00:18:47;2.40;;;1.73;;
7971;SDS011;4031;49.758;6.120;2022-07-06T00:21:13;9.50;;;2.30;;
7971;SDS011;4031;49.758;6.120;2022-07-06T00:23:39;2.20;;;2.00;;
7971;SDS011;4031;49.758;6.120;2022-07-06T00:26:05;7.10;;;2.30;;
7971;SDS011;4031;49.758;6.120;2022-07-06T00:28:31;1.93;;;1.73;;
7971;SDS011;4031;49.758;6.120;2022-07-06T00:30:57;2.40;;;1.70;;
7971;SDS011;4031;49.758;6.120;2022-07-06T00:33:23;4.60;;;2.23;;
7971;SDS011;4031;49.758;6.120;2022-07-06T00:35:49;3.07;;;1.63;;
7971;SDS011;4031;49.758;6.120;2022-07-06T00:38:15;2.47;;;2.00;;
7971;SDS011;4031;49.758;6.120;2022-07-06T00:40:41;2.83;;;1.93;;
7971;SDS011;4031;49.758;6.120;2022-07-06T00:43:07;1.90;;;1.67;;
7971;SDS011;4031;49.758;6.120;2022-07-06T00:45:33;2.50;;;2.30;;
7971;SDS011;4031;49.758;6.120;2022-07-06T00:47:59;2.13;;;1.77;;
7971;SDS011;4031;49.758;6.120;2022-07-06T00:50:25;2.33;;;1.50;;
7971;SDS011;4031;49.758;6.120;2022-07-06T00:52:56;2.53;;;1.70;;
7971;SDS011;4031;49.758;6.120;2022-07-06T00:55:28;7.33;;;1.93;;
7971;SDS011;4031;49.758;6.120;2022-07-06T00:57:56;2.97;;;1.80;;
7971;SDS011;4031;49.758;6.120;2022-07-06T01:00:24;1.60;;;1.50;;
7971;SDS011;4031;49.758;6.120;2022-07-06T01:02:52;2.33;;;1.70;;
7971;SDS011;4031;49.758;6.120;2022-07-06T01:05:18;2.93;;;2.50;;
7971;SDS011;4031;49.758;6.120;2022-07-06T01:07:45;2.50;;;1.97;;
7971;SDS011;4031;49.758;6.120;2022-07-06T01:10:13;3.30;;;1.80;;
7971;SDS011;4031;49.758;6.120;2022-07-06T01:12:42;1.93;;;1.67;;
7971;SDS011;4031;49.758;6.120;2022-07-06T01:15:10;3.43;;;1.87;;
7971;SDS011;4031;49.758;6.120;2022-07-06T01:17:39;4.00;;;1.50;;
7971;SDS011;4031;49.758;6.120;2022-07-06T01:20:12;1.60;;;1.43;;
7971;SDS011;4031;49.758;6.120;2022-07-06T01:22:42;1.93;;;1.50;;
7971;SDS011;4031;49.758;6.120;2022-07-06T01:25:12;1.77;;;1.67;;
7971;SDS011;4031;49.758;6.120;2022-07-06T01:27:39;1.83;;;1.70;;
7971;SDS011;4031;49.758;6.120;2022-07-06T01:30:06;3.03;;;2.07;;
7971;SDS011;4031;49.758;6.120;2022-07-06T01:32:41;4.00;;;2.40;;
7971;SDS011;4031;49.758;6.120;2022-07-06T01:35:09;2.47;;;2.00;;
7971;SDS011;4031;49.758;6.120;2022-07-06T01:37:37;2.33;;;1.50;;
7971;SDS011;4031;49.758;6.120;2022-07-06T01:40:05;3.10;;;1.97;;
7971;SDS011;4031;49.758;6.120;2022-07-06T01:42:33;3.17;;;2.03;;
7971;SDS011;4031;49.758;6.120;2022-07-06T01:45:00;8.53;;;2.40;;
7971;SDS011;4031;49.758;6.120;2022-07-06T01:47:26;4.10;;;1.80;;
7971;SDS011;4031;49.758;6.120;2022-07-06T01:49:52;3.83;;;2.10;;
7971;SDS011;4031;49.758;6.120;2022-07-06T01:52:18;2.80;;;1.93;;
7971;SDS011;4031;49.758;6.120;2022-07-06T01:54:44;2.77;;;1.73;;
7971;SDS011;4031;49.758;6.120;2022-07-06T01:57:10;6.17;;;1.90;;
7971;SDS011;4031;49.758;6.120;2022-07-06T01:59:36;2.10;;;1.77;;
7971;SDS011;4031;49.758;6.120;2022-07-06T02:02:02;2.63;;;2.20;;
7971;SDS011;4031;49.758;6.120;2022-07-06T02:04:28;5.40;;;1.63;;
7971;SDS011;4031;49.758;6.120;2022-07-06T02:06:53;2.40;;;2.10;;
7971;SDS011;4031;49.758;6.120;2022-07-06T02:09:19;10.10;;;1.90;;
7971;SDS011;4031;49.758;6.120;2022-07-06T02:11:45;3.03;;;1.40;;
7971;SDS011;4031;49.758;6.120;2022-07-06T02:14:11;2.33;;;1.53;;
7971;SDS011;4031;49.758;6.120;2022-07-06T02:16:36;2.43;;;2.23;;
7971;SDS011;4031;49.758;6.120;2022-07-06T02:19:02;3.13;;;1.87;;
7971;SDS011;4031;49.758;6.120;2022-07-06T02:21:28;2.93;;;1.80;;
7971;SDS011;4031;49.758;6.120;2022-07-06T02:23:54;4.83;;;1.97;;
7971;SDS011;4031;49.758;6.120;2022-07-06T02:26:20;2.67;;;2.00;;
7971;SDS011;4031;49.758;6.120;2022-07-06T02:28:46;2.00;;;1.80;;
7971;SDS011;4031;49.758;6.120;2022-07-06T02:31:12;1.60;;;1.37;;
7971;SDS011;4031;49.758;6.120;2022-07-06T02:33:39;2.77;;;1.90;;
7971;SDS011;4031;49.758;6.120;2022-07-06T02:36:05;3.20;;;1.80;;
7971;SDS011;4031;49.758;6.120;2022-07-06T02:38:32;4.67;;;2.20;;
7971;SDS011;4031;49.758;6.120;2022-07-06T02:40:57;2.13;;;1.93;;
7971;SDS011;4031;49.758;6.120;2022-07-06T02:43:23;2.17;;;1.80;;
7971;SDS011;4031;49.758;6.120;2022-07-06T02:45:49;2.07;;;1.87;;
7971;SDS011;4031;49.758;6.120;2022-07-06T02:48:15;3.90;;;2.00;;
7971;SDS011;4031;49.758;6.120;2022-07-06T02:50:41;2.60;;;1.90;;
7971;SDS011;4031;49.758;6.120;2022-07-06T02:53:06;3.20;;;2.20;;
7971;SDS011;4031;49.758;6.120;2022-07-06T02:55:32;2.37;;;1.90;;
7971;SDS011;4031;49.758;6.120;2022-07-06T02:57:58;2.63;;;2.13;;
7971;SDS011;4031;49.758;6.120;2022-07-06T03:00:24;2.70;;;2.17;;
7971;SDS011;4031;49.758;6.120;2022-07-06T03:02:50;3.77;;;2.50;;
7971;SDS011;4031;49.758;6.120;2022-07-06T03:05:15;3.40;;;2.67;;
7971;SDS011;4031;49.758;6.120;2022-07-06T03:07:41;3.07;;;2.07;;
7971;SDS011;4031;49.758;6.120;2022-07-06T03:10:07;2.90;;;2.10;;
7971;SDS011;4031;49.758;6.120;2022-07-06T03:12:33;4.30;;;3.07;;
7971;SDS011;4031;49.758;6.120;2022-07-06T03:14:59;2.90;;;1.70;;
7971;SDS011;4031;49.758;6.120;2022-07-06T03:17:25;2.40;;;1.80;;
7971;SDS011;4031;49.758;6.120;2022-07-06T03:19:50;3.00;;;2.10;;
7971;SDS011;4031;49.758;6.120;2022-07-06T03:22:17;2.97;;;2.47;;
7971;SDS011;4031;49.758;6.120;2022-07-06T03:24:43;2.20;;;1.87;;
7971;SDS011;4031;49.758;6.120;2022-07-06T03:27:09;3.20;;;2.20;;
7971;SDS011;4031;49.758;6.120;2022-07-06T03:29:35;4.20;;;2.10;;
7971;SDS011;4031;49.758;6.120;2022-07-06T03:32:00;2.53;;;2.30;;
7971;SDS011;4031;49.758;6.120;2022-07-06T03:34:26;2.90;;;2.27;;
7971;SDS011;4031;49.758;6.120;2022-07-06T03:36:52;2.77;;;1.93;;
7971;SDS011;4031;49.758;6.120;2022-07-06T03:39:18;5.63;;;2.17;;
7971;SDS011;4031;49.758;6.120;2022-07-06T03:41:43;2.87;;;2.40;;
7971;SDS011;4031;49.758;6.120;2022-07-06T03:44:09;3.57;;;1.90;;
7971;SDS011;4031;49.758;6.120;2022-07-06T03:46:35;5.77;;;2.63;;
7971;SDS011;4031;49.758;6.120;2022-07-06T03:49:01;3.70;;;2.40;;
7971;SDS011;4031;49.758;6.120;2022-07-06T03:51:27;3.10;;;2.10;;
7971;SDS011;4031;49.758;6.120;2022-07-06T03:53:52;3.80;;;2.00;;
7971;SDS011;4031;49.758;6.120;2022-07-06T03:56:18;3.80;;;1.97;;
7971;SDS011;4031;49.758;6.120;2022-07-06T03:58:53;2.60;;;1.97;;
7971;SDS011;4031;49.758;6.120;2022-07-06T04:01:26;3.80;;;2.70;;
7971;SDS011;4031;49.758;6.120;2022-07-06T04:03:52;2.80;;;2.43;;
7971;SDS011;4031;49.758;6.120;2022-07-06T04:06:18;3.40;;;2.03;;
7971;SDS011;4031;49.758;6.120;2022-07-06T04:08:44;9.50;;;2.80;;
7971;SDS011;4031;49.758;6.120;2022-07-06T04:11:10;3.90;;;2.30;;
7971;SDS011;4031;49.758;6.120;2022-07-06T04:13:36;4.00;;;2.93;;
7971;SDS011;4031;49.758;6.120;2022-07-06T04:16:04;3.73;;;2.53;;
7971;SDS011;4031;49.758;6.120;2022-07-06T04:18:31;3.00;;;2.40;;
7971;SDS011;4031;49.758;6.120;2022-07-06T04:20:57;3.33;;;2.70;;
7971;SDS011;4031;49.758;6.120;2022-07-06T04:23:23;2.00;;;1.70;;
7971;SDS011;4031;49.758;6.120;2022-07-06T04:25:49;3.57;;;2.73;;
7971;SDS011;4031;49.758;6.120;2022-07-06T04:28:15;4.50;;;2.60;;
7971;SDS011;4031;49.758;6.120;2022-07-06T04:30:41;2.90;;;2.63;;
7971;SDS011;4031;49.758;6.120;2022-07-06T04:33:06;3.40;;;1.97;;
7971;SDS011;4031;49.758;6.120;2022-07-06T04:35:32;2.57;;;2.37;;
7971;SDS011;4031;49.758;6.120;2022-07-06T04:37:58;3.10;;;2.17;;
7971;SDS011;4031;49.758;6.120;2022-07-06T04:40:24;3.00;;;2.17;;
7971;SDS011;4031;49.758;6.120;2022-07-06T04:42:50;3.30;;;2.60;;
7971;SDS011;4031;49.758;6.120;2022-07-06T04:45:15;5.30;;;3.23;;
7971;SDS011;4031;49.758;6.120;2022-07-06T04:47:41;5.30;;;2.13;;
7971;SDS011;4031;49.758;6.120;2022-07-06T04:50:09;3.60;;;2.50;;
7971;SDS011;4031;49.758;6.120;2022-07-06T04:52:35;4.33;;;3.30;;
7971;SDS011;4031;49.758;6.120;2022-07-06T04:55:00;5.73;;;2.70;;
7971;SDS011;4031;49.758;6.120;2022-07-06T04:57:29;4.47;;;2.80;;
7971;SDS011;4031;49.758;6.120;2022-07-06T04:59:55;4.10;;;2.80;;
7971;SDS011;4031;49.758;6.120;2022-07-06T05:02:21;3.83;;;3.07;;
7971;SDS011;4031;49.758;6.120;2022-07-06T05:04:47;2.63;;;2.00;;
7971;SDS011;4031;49.758;6.120;2022-07-06T05:07:13;4.90;;;3.50;;
7971;SDS011;4031;49.758;6.120;2022-07-06T05:09:40;3.87;;;2.60;;
7971;SDS011;4031;49.758;6.120;2022-07-06T05:12:06;2.83;;;2.40;;
7971;SDS011;4031;49.758;6.120;2022-07-06T05:14:32;2.90;;;2.13;;
7971;SDS011;4031;49.758;6.120;2022-07-06T05:16:58;4.87;;;3.10;;
7971;SDS011;4031;49.758;6.120;2022-07-06T05:19:24;3.60;;;3.10;;
7971;SDS011;4031;49.758;6.120;2022-07-06T05:21:50;5.10;;;2.90;;
7971;SDS011;4031;49.758;6.120;2022-07-06T05:24:16;4.37;;;2.70;;
7971;SDS011;4031;49.758;6.120;2022-07-06T05:26:43;4.53;;;2.50;;
7971;SDS011;4031;49.758;6.120;2022-07-06T05:29:08;3.90;;;2.70;;
7971;SDS011;4031;49.758;6.120;2022-07-06T05:31:34;5.10;;;3.40;;
7971;SDS011;4031;49.758;6.120;2022-07-06T05:34:00;5.37;;;3.10;;
7971;SDS011;4031;49.758;6.120;2022-07-06T05:36:26;4.30;;;3.60;;
7971;SDS011;4031;49.758;6.120;2022-07-06T05:38:52;6.60;;;3.23;;
7971;SDS011;4031;49.758;6.120;2022-07-06T05:41:17;6.30;;;3.17;;
7971;SDS011;4031;49.758;6.120;2022-07-06T05:43:43;4.80;;;3.63;;
7971;SDS011;4031;49.758;6.120;2022-07-06T05:46:09;3.60;;;2.83;;
7971;SDS011;4031;49.758;6.120;2022-07-06T05:48:35;4.83;;;3.47;;
7971;SDS011;4031;49.758;6.120;2022-07-06T05:51:19;6.10;;;3.27;;
7971;SDS011;4031;49.758;6.120;2022-07-06T05:53:45;4.43;;;3.20;;
7971;SDS011;4031;49.758;6.120;2022-07-06T05:56:10;3.13;;;2.20;;
7971;SDS011;4031;49.758;6.120;2022-07-06T05:58:36;6.33;;;3.37;;
7971;SDS011;4031;49.758;6.120;2022-07-06T06:01:02;5.60;;;3.13;;
7971;SDS011;4031;49.758;6.120;2022-07-06T06:03:28;4.23;;;3.40;;
7971;SDS011;4031;49.758;6.120;2022-07-06T06:05:53;7.03;;;3.20;;
7971;SDS011;4031;49.758;6.120;2022-07-06T06:08:19;3.23;;;2.73;;
7971;SDS011;4031;49.758;6.120;2022-07-06T06:10:45;4.70;;;2.60;;
7971;SDS011;4031;49.758;6.120;2022-07-06T06:13:11;4.93;;;2.73;;
7971;SDS011;4031;49.758;6.120;2022-07-06T06:15:36;4.73;;;2.30;;
7971;SDS011;4031;49.758;6.120;2022-07-06T06:18:02;4.10;;;2.70;;
7971;SDS011;4031;49.758;6.120;2022-07-06T06:20:31;3.77;;;2.37;;
7971;SDS011;4031;49.758;6.120;2022-07-06T06:22:57;3.63;;;2.53;;
7971;SDS011;4031;49.758;6.120;2022-07-06T06:25:28;4.53;;;2.20;;
7971;SDS011;4031;49.758;6.120;2022-07-06T06:28:00;2.40;;;1.80;;
7971;SDS011;4031;49.758;6.120;2022-07-06T06:30:28;5.20;;;2.20;;
7971;SDS011;4031;49.758;6.120;2022-07-06T06:35:45;2.23;;;1.70;;
7971;SDS011;4031;49.758;6.120;2022-07-06T06:38:16;2.90;;;1.67;;
7971;SDS011;4031;49.758;6.120;2022-07-06T06:40:43;3.63;;;2.07;;
7971;SDS011;4031;49.758;6.120;2022-07-06T06:43:09;2.43;;;1.60;;
7971;SDS011;4031;49.758;6.120;2022-07-06T06:45:35;1.93;;;1.20;;
7971;SDS011;4031;49.758;6.120;2022-07-06T06:48:01;1.43;;;1.17;;
7971;SDS011;4031;49.758;6.120;2022-07-06T06:50:26;5.07;;;1.13;;
7971;SDS011;4031;49.758;6.120;2022-07-06T06:52:52;1.40;;;1.00;;
7971;SDS011;4031;49.758;6.120;2022-07-06T06:55:18;3.30;;;1.27;;
7971;SDS011;4031;49.758;6.120;2022-07-06T06:57:44;1.87;;;1.20;;
7971;SDS011;4031;49.758;6.120;2022-07-06T07:00:10;3.97;;;1.03;;
7971;SDS011;4031;49.758;6.120;2022-07-06T07:02:36;2.27;;;1.40;;
7971;SDS011;4031;49.758;6.120;2022-07-06T07:05:03;3.10;;;1.23;;
7971;SDS011;4031;49.758;6.120;2022-07-06T07:07:30;4.73;;;1.43;;
7971;SDS011;4031;49.758;6.120;2022-07-06T07:09:56;5.53;;;1.30;;
7971;SDS011;4031;49.758;6.120;2022-07-06T07:12:22;3.23;;;1.13;;
7971;SDS011;4031;49.758;6.120;2022-07-06T07:14:48;2.10;;;1.10;;
7971;SDS011;4031;49.758;6.120;2022-07-06T07:17:14;1.53;;;0.90;;
7971;SDS011;4031;49.758;6.120;2022-07-06T07:19:40;1.70;;;1.23;;
7971;SDS011;4031;49.758;6.120;2022-07-06T07:22:05;2.03;;;1.03;;
7971;SDS011;4031;49.758;6.120;2022-07-06T07:24:31;2.80;;;1.03;;
7971;SDS011;4031;49.758;6.120;2022-07-06T07:26:57;2.03;;;1.17;;
7971;SDS011;4031;49.758;6.120;2022-07-06T07:29:23;1.90;;;1.10;;
7971;SDS011;4031;49.758;6.120;2022-07-06T07:31:49;1.73;;;1.10;;
7971;SDS011;4031;49.758;6.120;2022-07-06T07:34:14;2.70;;;0.90;;
7971;SDS011;4031;49.758;6.120;2022-07-06T07:36:41;2.07;;;1.13;;
7971;SDS011;4031;49.758;6.120;2022-07-06T07:39:07;2.00;;;1.20;;
7971;SDS011;4031;49.758;6.120;2022-07-06T07:41:32;1.20;;;1.10;;
7971;SDS011;4031;49.758;6.120;2022-07-06T07:43:58;1.70;;;1.07;;
7971;SDS011;4031;49.758;6.120;2022-07-06T07:46:24;2.60;;;0.67;;
7971;SDS011;4031;49.758;6.120;2022-07-06T07:48:49;2.50;;;1.23;;
7971;SDS011;4031;49.758;6.120;2022-07-06T07:51:15;3.13;;;0.90;;
7971;SDS011;4031;49.758;6.120;2022-07-06T07:53:41;1.10;;;0.70;;
7971;SDS011;4031;49.758;6.120;2022-07-06T07:56:07;3.67;;;1.20;;
7971;SDS011;4031;49.758;6.120;2022-07-06T07:58:33;1.50;;;1.00;;
7971;SDS011;4031;49.758;6.120;2022-07-06T08:00:59;4.17;;;0.97;;
7971;SDS011;4031;49.758;6.120;2022-07-06T08:03:25;6.23;;;1.67;;
7971;SDS011;4031;49.758;6.120;2022-07-06T08:05:51;1.23;;;1.10;;
7971;SDS011;4031;49.758;6.120;2022-07-06T08:08:17;2.30;;;0.90;;
7971;SDS011;4031;49.758;6.120;2022-07-06T08:10:43;1.10;;;0.93;;
7971;SDS011;4031;49.758;6.120;2022-07-06T08:13:09;1.63;;;0.90;;
7971;SDS011;4031;49.758;6.120;2022-07-06T08:15:35;1.90;;;0.90;;
7971;SDS011;4031;49.758;6.120;2022-07-06T08:18:02;3.80;;;0.90;;
7971;SDS011;4031;49.758;6.120;2022-07-06T08:20:28;1.97;;;0.90;;
7971;SDS011;4031;49.758;6.120;2022-07-06T08:22:54;1.30;;;0.80;;
7971;SDS011;4031;49.758;6.120;2022-07-06T08:25:21;2.00;;;1.10;;
7971;SDS011;4031;49.758;6.120;2022-07-06T08:27:47;1.70;;;0.80;;
7971;SDS011;4031;49.758;6.120;2022-07-06T08:30:13;1.33;;;0.63;;
7971;SDS011;4031;49.758;6.120;2022-07-06T08:32:39;1.13;;;0.80;;
7971;SDS011;4031;49.758;6.120;2022-07-06T08:35:06;1.50;;;0.90;;
7971;SDS011;4031;49.758;6.120;2022-07-06T08:37:33;1.57;;;0.63;;
7971;SDS011;4031;49.758;6.120;2022-07-06T08:39:59;4.20;;;0.97;;
7971;SDS011;4031;49.758;6.120;2022-07-06T08:42:31;2.70;;;0.83;;
7971;SDS011;4031;49.758;6.120;2022-07-06T08:44:59;2.27;;;0.93;;
7971;SDS011;4031;49.758;6.120;2022-07-06T08:47:27;0.97;;;0.70;;
7971;SDS011;4031;49.758;6.120;2022-07-06T08:49:55;2.10;;;1.03;;
7971;SDS011;4031;49.758;6.120;2022-07-06T08:52:22;1.70;;;0.70;;
7971;SDS011;4031;49.758;6.120;2022-07-06T08:54:48;1.90;;;0.70;;
7971;SDS011;4031;49.758;6.120;2022-07-06T08:57:14;1.43;;;1.00;;
7971;SDS011;4031;49.758;6.120;2022-07-06T08:59:40;2.10;;;1.03;;
7971;SDS011;4031;49.758;6.120;2022-07-06T09:02:06;4.20;;;0.80;;
7971;SDS011;4031;49.758;6.120;2022-07-06T09:04:38;0.97;;;0.80;;
7971;SDS011;4031;49.758;6.120;2022-07-06T09:07:05;1.60;;;0.80;;
7971;SDS011;4031;49.758;6.120;2022-07-06T09:09:31;4.60;;;1.13;;
7971;SDS011;4031;49.758;6.120;2022-07-06T09:11:58;1.43;;;0.83;;
7971;SDS011;4031;49.758;6.120;2022-07-06T09:14:24;2.10;;;0.70;;
7971;SDS011;4031;49.758;6.120;2022-07-06T09:17:03;1.47;;;0.80;;
7971;SDS011;4031;49.758;6.120;2022-07-06T09:19:31;1.20;;;0.60;;
7971;SDS011;4031;49.758;6.120;2022-07-06T09:21:59;2.13;;;0.80;;
7971;SDS011;4031;49.758;6.120;2022-07-06T09:24:26;3.60;;;0.93;;
7971;SDS011;4031;49.758;6.120;2022-07-06T09:26:55;2.47;;;0.70;;
7971;SDS011;4031;49.758;6.120;2022-07-06T09:29:29;1.80;;;0.87;;
7971;SDS011;4031;49.758;6.120;2022-07-06T09:31:57;2.53;;;1.10;;
7971;SDS011;4031;49.758;6.120;2022-07-06T09:34:46;2.03;;;0.83;;
7971;SDS011;4031;49.758;6.120;2022-07-06T09:37:12;1.83;;;0.77;;
7971;SDS011;4031;49.758;6.120;2022-07-06T09:39:39;2.50;;;0.90;;
7971;SDS011;4031;49.758;6.120;2022-07-06T09:42:07;1.03;;;0.93;;
7971;SDS011;4031;49.758;6.120;2022-07-06T09:44:34;4.40;;;0.77;;
7971;SDS011;4031;49.758;6.120;2022-07-06T09:47:03;2.50;;;1.00;;
7971;SDS011;4031;49.758;6.120;2022-07-06T09:49:37;3.53;;;0.83;;
7971;SDS011;4031;49.758;6.120;2022-07-06T09:52:05;2.10;;;0.77;;
7971;SDS011;4031;49.758;6.120;2022-07-06T09:54:34;2.77;;;0.90;;
7971;SDS011;4031;49.758;6.120;2022-07-06T09:57:03;2.37;;;0.93;;
7971;SDS011;4031;49.758;6.120;2022-07-06T09:59:31;2.33;;;0.90;;
7971;SDS011;4031;49.758;6.120;2022-07-06T10:02:01;1.27;;;0.70;;
7971;SDS011;4031;49.758;6.120;2022-07-06T10:04:32;1.70;;;0.83;;
7971;SDS011;4031;49.758;6.120;2022-07-06T10:06:59;2.03;;;0.77;;
7971;SDS011;4031;49.758;6.120;2022-07-06T10:09:26;2.23;;;1.03;;
7971;SDS011;4031;49.758;6.120;2022-07-06T10:11:54;3.60;;;1.03;;
7971;SDS011;4031;49.758;6.120;2022-07-06T10:14:22;1.97;;;1.37;;
7971;SDS011;4031;49.758;6.120;2022-07-06T10:16:50;1.27;;;0.80;;
7971;SDS011;4031;49.758;6.120;2022-07-06T10:19:19;1.40;;;0.90;;
7971;SDS011;4031;49.758;6.120;2022-07-06T10:21:46;1.27;;;0.93;;
7971;SDS011;4031;49.758;6.120;2022-07-06T10:24:12;3.07;;;0.90;;
7971;SDS011;4031;49.758;6.120;2022-07-06T10:26:39;2.87;;;0.70;;
7971;SDS011;4031;49.758;6.120;2022-07-06T10:29:06;3.07;;;1.00;;
7971;SDS011;4031;49.758;6.120;2022-07-06T10:31:34;1.90;;;0.93;;
7971;SDS011;4031;49.758;6.120;2022-07-06T10:34:04;2.53;;;0.90;;
7971;SDS011;4031;49.758;6.120;2022-07-06T10:36:36;1.30;;;1.00;;
7971;SDS011;4031;49.758;6.120;2022-07-06T10:39:04;1.93;;;0.70;;
7971;SDS011;4031;49.758;6.120;2022-07-06T10:41:50;4.60;;;1.00;;
7971;SDS011;4031;49.758;6.120;2022-07-06T10:44:19;2.53;;;0.93;;
7971;SDS011;4031;49.758;6.120;2022-07-06T10:46:54;2.60;;;1.07;;
7971;SDS011;4031;49.758;6.120;2022-07-06T10:49:23;1.10;;;0.70;;
7971;SDS011;4031;49.758;6.120;2022-07-06T10:51:51;1.63;;;0.60;;
7971;SDS011;4031;49.758;6.120;2022-07-06T10:54:17;4.30;;;1.13;;
7971;SDS011;4031;49.758;6.120;2022-07-06T10:56:47;2.47;;;1.00;;
7971;SDS011;4031;49.758;6.120;2022-07-06T10:59:22;1.57;;;0.83;;
7971;SDS011;4031;49.758;6.120;2022-07-06T11:04:45;2.20;;;0.90;;
7971;SDS011;4031;49.758;6.120;2022-07-06T11:09:40;1.10;;;0.73;;
7971;SDS011;4031;49.758;6.120;2022-07-06T11:12:16;1.57;;;0.80;;
7971;SDS011;4031;49.758;6.120;2022-07-06T11:14:49;1.80;;;0.80;;
7971;SDS011;4031;49.758;6.120;2022-07-06T11:17:16;0.80;;;0.60;;
7971;SDS011;4031;49.758;6.120;2022-07-06T11:22:22;1.23;;;0.60;;
7971;SDS011;4031;49.758;6.120;2022-07-06T11:24:49;1.13;;;0.60;;
7971;SDS011;4031;49.758;6.120;2022-07-06T11:27:22;1.57;;;0.80;;
7971;SDS011;4031;49.758;6.120;2022-07-06T11:29:48;1.37;;;1.10;;
7971;SDS011;4031;49.758;6.120;2022-07-06T11:32:14;0.90;;;0.70;;
7971;SDS011;4031;49.758;6.120;2022-07-06T11:34:41;1.23;;;0.70;;
7971;SDS011;4031;49.758;6.120;2022-07-06T11:37:12;1.13;;;0.70;;
7971;SDS011;4031;49.758;6.120;2022-07-06T11:39:40;1.43;;;0.60;;
7971;SDS011;4031;49.758;6.120;2022-07-06T11:42:08;1.17;;;0.87;;
7971;SDS011;4031;49.758;6.120;2022-07-06T11:44:35;1.57;;;0.60;;
7971;SDS011;4031;49.758;6.120;2022-07-06T11:47:03;1.63;;;1.00;;
7971;SDS011;4031;49.758;6.120;2022-07-06T11:49:31;2.70;;;1.17;;
7971;SDS011;4031;49.758;6.120;2022-07-06T11:52:14;2.20;;;0.80;;
7971;SDS011;4031;49.758;6.120;2022-07-06T11:54:40;4.43;;;1.00;;
7971;SDS011;4031;49.758;6.120;2022-07-06T11:57:07;1.73;;;0.90;;
7971;SDS011;4031;49.758;6.120;2022-07-06T11:59:35;1.37;;;0.73;;
7971;SDS011;4031;49.758;6.120;2022-07-06T12:02:06;1.97;;;1.10;;
7971;SDS011;4031;49.758;6.120;2022-07-06T12:04:35;2.13;;;0.90;;
7971;SDS011;4031;49.758;6.120;2022-07-06T12:07:04;1.10;;;0.70;;
7971;SDS011;4031;49.758;6.120;2022-07-06T12:09:39;2.20;;;0.93;;
7971;SDS011;4031;49.758;6.120;2022-07-06T12:12:09;1.67;;;1.10;;
7971;SDS011;4031;49.758;6.120;2022-07-06T12:14:40;1.70;;;0.80;;
7971;SDS011;4031;49.758;6.120;2022-07-06T12:17:14;1.10;;;1.00;;
7971;SDS011;4031;49.758;6.120;2022-07-06T12:19:41;2.13;;;1.00;;
7971;SDS011;4031;49.758;6.120;2022-07-06T12:22:07;1.73;;;0.90;;
7971;SDS011;4031;49.758;6.120;2022-07-06T12:24:35;2.60;;;1.00;;
7971;SDS011;4031;49.758;6.120;2022-07-06T12:27:36;3.23;;;1.10;;
7971;SDS011;4031;49.758;6.120;2022-07-06T12:30:07;1.93;;;0.70;;
7971;SDS011;4031;49.758;6.120;2022-07-06T12:32:35;1.33;;;0.83;;
7971;SDS011;4031;49.758;6.120;2022-07-06T12:37:34;1.50;;;1.07;;
7971;SDS011;4031;49.758;6.120;2022-07-06T12:40:00;5.00;;;1.20;;
7971;SDS011;4031;49.758;6.120;2022-07-06T12:42:47;1.00;;;0.90;;
7971;SDS011;4031;49.758;6.120;2022-07-06T12:45:14;2.50;;;1.10;;
7971;SDS011;4031;49.758;6.120;2022-07-06T12:47:40;1.47;;;0.97;;
7971;SDS011;4031;49.758;6.120;2022-07-06T12:50:08;1.87;;;0.80;;
7971;SDS011;4031;49.758;6.120;2022-07-06T12:52:36;2.67;;;1.23;;
7971;SDS011;4031;49.758;6.120;2022-07-06T12:55:03;2.53;;;1.20;;
7971;SDS011;4031;49.758;6.120;2022-07-06T12:57:43;1.63;;;1.00;;
7971;SDS011;4031;49.758;6.120;2022-07-06T13:00:11;1.27;;;1.10;;
7971;SDS011;4031;49.758;6.120;2022-07-06T13:02:37;1.30;;;1.10;;
7971;SDS011;4031;49.758;6.120;2022-07-06T13:07:36;1.43;;;1.00;;
7971;SDS011;4031;49.758;6.120;2022-07-06T13:10:05;2.63;;;1.33;;
7971;SDS011;4031;49.758;6.120;2022-07-06T13:12:33;1.57;;;1.17;;
7971;SDS011;4031;49.758;6.120;2022-07-06T13:15:00;1.13;;;0.87;;
7971;SDS011;4031;49.758;6.120;2022-07-06T13:17:26;1.10;;;0.90;;
7971;SDS011;4031;49.758;6.120;2022-07-06T13:19:52;1.70;;;1.07;;
7971;SDS011;4031;49.758;6.120;2022-07-06T13:22:18;3.90;;;1.10;;
7971;SDS011;4031;49.758;6.120;2022-07-06T13:24:43;8.73;;;1.30;;
7971;SDS011;4031;49.758;6.120;2022-07-06T13:27:09;2.00;;;0.80;;
7971;SDS011;4031;49.758;6.120;2022-07-06T13:29:37;1.10;;;0.77;;
7971;SDS011;4031;49.758;6.120;2022-07-06T13:32:03;3.73;;;1.20;;
7971;SDS011;4031;49.758;6.120;2022-07-06T13:34:30;1.27;;;1.17;;
7971;SDS011;4031;49.758;6.120;2022-07-06T13:36:56;3.13;;;1.10;;
7971;SDS011;4031;49.758;6.120;2022-07-06T13:39:22;1.63;;;1.13;;
7971;SDS011;4031;49.758;6.120;2022-07-06T13:41:48;4.17;;;1.10;;
7971;SDS011;4031;49.758;6.120;2022-07-06T13:44:14;2.40;;;1.00;;
7971;SDS011;4031;49.758;6.120;2022-07-06T13:46:40;1.30;;;0.97;;
7971;SDS011;4031;49.758;6.120;2022-07-06T13:49:07;2.60;;;0.87;;
7971;SDS011;4031;49.758;6.120;2022-07-06T13:51:33;1.80;;;1.03;;
7971;SDS011;4031;49.758;6.120;2022-07-06T13:53:59;7.93;;;1.70;;
7971;SDS011;4031;49.758;6.120;2022-07-06T13:56:26;2.40;;;1.20;;
7971;SDS011;4031;49.758;6.120;2022-07-06T13:58:52;4.17;;;1.27;;
7971;SDS011;4031;49.758;6.120;2022-07-06T14:01:19;5.97;;;1.27;;
7971;SDS011;4031;49.758;6.120;2022-07-06T14:03:45;1.70;;;1.43;;
7971;SDS011;4031;49.758;6.120;2022-07-06T14:06:11;3.73;;;1.20;;
7971;SDS011;4031;49.758;6.120;2022-07-06T14:08:38;2.77;;;1.20;;
7971;SDS011;4031;49.758;6.120;2022-07-06T14:11:04;1.27;;;0.87;;
7971;SDS011;4031;49.758;6.120;2022-07-06T14:13:32;3.87;;;1.27;;
7971;SDS011;4031;49.758;6.120;2022-07-06T14:15:59;3.10;;;1.10;;
7971;SDS011;4031;49.758;6.120;2022-07-06T14:18:25;2.53;;;1.20;;
7971;SDS011;4031;49.758;6.120;2022-07-06T14:20:52;2.10;;;1.40;;
7971;SDS011;4031;49.758;6.120;2022-07-06T14:23:18;2.07;;;1.10;;
7971;SDS011;4031;49.758;6.120;2022-07-06T14:25:44;2.40;;;0.97;;
7971;SDS011;4031;49.758;6.120;2022-07-06T14:28:11;2.40;;;1.03;;
7971;SDS011;4031;49.758;6.120;2022-07-06T14:30:38;2.07;;;1.00;;
7971;SDS011;4031;49.758;6.120;2022-07-06T14:33:06;2.83;;;1.10;;
7971;SDS011;4031;49.758;6.120;2022-07-06T14:35:37;3.57;;;1.03;;
7971;SDS011;4031;49.758;6.120;2022-07-06T14:38:04;2.83;;;1.00;;
7971;SDS011;4031;49.758;6.120;2022-07-06T14:40:31;7.10;;;1.50;;
7971;SDS011;4031;49.758;6.120;2022-07-06T14:42:58;1.30;;;1.10;;
7971;SDS011;4031;49.758;6.120;2022-07-06T14:45:25;2.67;;;1.20;;
7971;SDS011;4031;49.758;6.120;2022-07-06T14:47:50;1.53;;;1.13;;
7971;SDS011;4031;49.758;6.120;2022-07-06T14:50:17;2.50;;;1.27;;
7971;SDS011;4031;49.758;6.120;2022-07-06T14:52:43;1.83;;;1.07;;
7971;SDS011;4031;49.758;6.120;2022-07-06T14:55:09;3.00;;;1.00;;
7971;SDS011;4031;49.758;6.120;2022-07-06T14:57:35;3.10;;;1.20;;
7971;SDS011;4031;49.758;6.120;2022-07-06T15:00:01;1.10;;;0.90;;
7971;SDS011;4031;49.758;6.120;2022-07-06T15:02:28;3.03;;;0.93;;
7971;SDS011;4031;49.758;6.120;2022-07-06T15:04:54;2.40;;;1.20;;
7971;SDS011;4031;49.758;6.120;2022-07-06T15:07:20;1.20;;;1.00;;
7971;SDS011;4031;49.758;6.120;2022-07-06T15:09:46;1.30;;;0.83;;
7971;SDS011;4031;49.758;6.120;2022-07-06T15:12:12;1.20;;;0.87;;
7971;SDS011;4031;49.758;6.120;2022-07-06T15:14:38;7.97;;;1.40;;
7971;SDS011;4031;49.758;6.120;2022-07-06T15:17:04;1.50;;;0.97;;
7971;SDS011;4031;49.758;6.120;2022-07-06T15:19:30;5.77;;;1.20;;
7971;SDS011;4031;49.758;6.120;2022-07-06T15:21:56;1.47;;;1.17;;
7971;SDS011;4031;49.758;6.120;2022-07-06T15:24:22;2.00;;;0.90;;
7971;SDS011;4031;49.758;6.120;2022-07-06T15:26:49;1.20;;;0.80;;
7971;SDS011;4031;49.758;6.120;2022-07-06T15:29:15;2.30;;;1.10;;
7971;SDS011;4031;49.758;6.120;2022-07-06T15:31:41;1.63;;;0.90;;